Hainesport Township, New Jersey
Current Conditions -  °F | °C
As of 9:54 AM on Sunday 21 Dec 2014 (Local Time) from KVAY Reporting Station
Clear Clear  
Wind Chill: 29°   Ceiling: Unl
Heat Index: 35°   Visibility: 10mi
Dew Point: 22°   Wind: 7mph
Humidity: 59%   Direction: 320°NW
Pressure: 30.34"   Gusts: NA
Location:  39.9913°N, 74.8408°W
Report Text: KVAY 211454Z AUTO 32006KT 10SM CLR 02/M06 A3034 RMK AO2 SLP274 T00171056 53007
Loading
Personal Weather Stations






























Interactive Weather Map New forecast layout! Learn more

10-Day Weather Forecast

Advertisements
Track Severe Weather on mobile